Galena, Indiana
Current Conditions -  °F | °C
As of 5:56 PM on Saturday 25 Oct 2014 (Local Time) from KSDF Reporting Station
Few Clouds Few Clouds  
Wind Chill: 75°   Ceiling: Unl
Heat Index: 75°   Visibility: 10mi
Dew Point: 58°   Wind: 16mph
Humidity: 55%   Direction: 240°WSW
Pressure: 29.96"   Gusts: NA
Location:  38.3602°N, 85.8979°W
Report Text: KSDF 252156Z 24014KT 10SM FEW200 FEW250 24/14 A2996 RMK AO2 SLP142 T02390144
Loading
Personal Weather Stations






























Interactive Weather Map
Tropical Storm Tracking
New forecast layout! Learn more

10-Day Weather Forecast

Advertisements
Track Severe Weather on mobile